B1109 LESB-LESB
Flight info
| Callsign | B1109 |
|---|---|
| Flight time | N/A |
| Altitude | 3500 |
| Route | LOCAL |
| Aircraft | DA40/L-SBDGRY/S |
Departure
| Time | 2026-05-06 18:51 |
|---|---|
| Airport | Son Bonet Airfield (LESB) |
Arrival
| Time | N/A |
|---|---|
| Airport | Son Bonet Airfield (LESB) |
| Time | Latitude | Longitude | Altitude | Speed | Heading |
|---|---|---|---|---|---|
| 2026-05-06 18:08 | 39.60207 | 2.70577 | 146 ft | 0 kts | 321° |
| 2026-05-06 18:40 | 39.60242 | 2.70536 | 146 ft | 0 kts | 287° |
| 2026-05-06 18:40 | 39.60242 | 2.70535 | 146 ft | 0 kts | 285° |
| 2026-05-06 18:41 | 39.60244 | 2.70527 | 146 ft | 0 kts | 306° |
| 2026-05-06 18:43 | 39.60248 | 2.70522 | 146 ft | 1 kts | 304° |
| 2026-05-06 18:43 | 39.60209 | 2.70575 | 146 ft | 0 kts | 321° |
| 2026-05-06 18:46 | 39.60210 | 2.70574 | 146 ft | 1 kts | 318° |
| 2026-05-06 18:46 | 39.60217 | 2.70555 | 146 ft | 6 kts | 263° |
| 2026-05-06 18:46 | 39.60186 | 2.70495 | 144 ft | 13 kts | 231° |
| 2026-05-06 18:46 | 39.60150 | 2.70421 | 142 ft | 4 kts | 231° |
| 2026-05-06 18:47 | 39.60118 | 2.70373 | 140 ft | 10 kts | 227° |
| 2026-05-06 18:47 | 39.60093 | 2.70343 | 139 ft | 1 kts | 147° |
| 2026-05-06 18:47 | 39.60064 | 2.70374 | 139 ft | 2 kts | 163° |
| 2026-05-06 18:47 | 39.60036 | 2.70333 | 137 ft | 14 kts | 224° |
| 2026-05-06 18:48 | 39.59964 | 2.70221 | 133 ft | 17 kts | 232° |
| 2026-05-06 18:48 | 39.59891 | 2.70103 | 129 ft | 17 kts | 232° |
| 2026-05-06 18:48 | 39.59815 | 2.70001 | 125 ft | 14 kts | 199° |
| 2026-05-06 18:48 | 39.59797 | 2.70003 | 124 ft | 0 kts | 123° |
| 2026-05-06 18:49 | 39.59783 | 2.70020 | 123 ft | 7 kts | 152° |
| 2026-05-06 18:49 | 39.59766 | 2.70064 | 124 ft | 5 kts | 50° |
| 2026-05-06 18:49 | 39.59792 | 2.70098 | 126 ft | 14 kts | 51° |
| 2026-05-06 18:49 | 39.59927 | 2.70326 | 134 ft | 50 kts | 49° |
| 2026-05-06 18:50 | 39.60204 | 2.70762 | 222 ft | 68 kts | 47° |
| 2026-05-06 18:50 | 39.60559 | 2.71281 | 358 ft | 75 kts | 45° |
| 2026-05-06 18:50 | 39.60948 | 2.71759 | 517 ft | 81 kts | 38° |
| 2026-05-06 18:50 | 39.61399 | 2.72231 | 712 ft | 82 kts | 36° |
| 2026-05-06 18:51 | 39.61945 | 2.72313 | 861 ft | 90 kts | 333° |
| 2026-05-06 18:51 | 39.62399 | 2.71743 | 1005 ft | 98 kts | 320° |
| 2026-05-06 18:51 | 39.62816 | 2.71079 | 1102 ft | 93 kts | 282° |
| 2026-05-06 18:51 | 39.62530 | 2.70292 | 1076 ft | 102 kts | 229° |
| 2026-05-06 18:52 | 39.62130 | 2.69567 | 1148 ft | 101 kts | 234° |
| 2026-05-06 18:52 | 39.61699 | 2.68834 | 1143 ft | 106 kts | 229° |
| 2026-05-06 18:52 | 39.61218 | 2.68119 | 1190 ft | 106 kts | 227° |